sensor_id;sensor_type;location;lat;lon;timestamp;temperature;humidity
30889;DHT22;51092;50.874;7.024;2023-08-07T00:00:12;13.30;99.90
30889;DHT22;51092;50.874;7.024;2023-08-07T00:01:13;13.30;99.90
30889;DHT22;51092;50.874;7.024;2023-08-07T00:02:15;13.30;99.90
30889;DHT22;51092;50.874;7.024;2023-08-07T00:03:17;13.20;99.90
30889;DHT22;51092;50.874;7.024;2023-08-07T00:04:19;13.20;99.90
30889;DHT22;51092;50.874;7.024;2023-08-07T00:05:21;13.20;99.90
30889;DHT22;51092;50.874;7.024;2023-08-07T00:06:22;13.10;99.90
30889;DHT22;51092;50.874;7.024;2023-08-07T00:07:25;13.10;99.90
30889;DHT22;51092;50.874;7.024;2023-08-07T00:08:26;13.10;99.90
30889;DHT22;51092;50.874;7.024;2023-08-07T00:09:28;13.00;99.90
30889;DHT22;51092;50.874;7.024;2023-08-07T00:10:30;13.00;99.90
30889;DHT22;51092;50.874;7.024;2023-08-07T00:11:32;13.00;99.90
30889;DHT22;51092;50.874;7.024;2023-08-07T00:12:36;12.90;99.90
30889;DHT22;51092;50.874;7.024;2023-08-07T00:13:37;12.90;99.90
30889;DHT22;51092;50.874;7.024;2023-08-07T00:14:40;12.90;99.90
30889;DHT22;51092;50.874;7.024;2023-08-07T00:15:41;12.90;99.90
30889;DHT22;51092;50.874;7.024;2023-08-07T00:16:44;12.90;99.90
30889;DHT22;51092;50.874;7.024;2023-08-07T00:17:46;12.80;99.90
30889;DHT22;51092;50.874;7.024;2023-08-07T00:18:48;12.80;99.90
30889;DHT22;51092;50.874;7.024;2023-08-07T00:19:50;12.80;99.90
30889;DHT22;51092;50.874;7.024;2023-08-07T00:20:52;12.80;99.90
30889;DHT22;51092;50.874;7.024;2023-08-07T00:21:53;12.70;99.90
30889;DHT22;51092;50.874;7.024;2023-08-07T00:22:55;12.80;99.90
30889;DHT22;51092;50.874;7.024;2023-08-07T00:23:56;12.70;99.90
30889;DHT22;51092;50.874;7.024;2023-08-07T00:24:58;12.80;99.90
30889;DHT22;51092;50.874;7.024;2023-08-07T00:25:59;12.70;99.90
30889;DHT22;51092;50.874;7.024;2023-08-07T00:27:02;12.70;99.90
30889;DHT22;51092;50.874;7.024;2023-08-07T00:28:06;12.70;99.90
30889;DHT22;51092;50.874;7.024;2023-08-07T00:29:08;12.70;99.90
30889;DHT22;51092;50.874;7.024;2023-08-07T00:30:11;12.70;99.90
30889;DHT22;51092;50.874;7.024;2023-08-07T00:31:13;12.70;99.90
30889;DHT22;51092;50.874;7.024;2023-08-07T00:32:15;12.70;99.90
30889;DHT22;51092;50.874;7.024;2023-08-07T00:33:17;12.70;99.90
30889;DHT22;51092;50.874;7.024;2023-08-07T00:34:19;12.70;99.90
30889;DHT22;51092;50.874;7.024;2023-08-07T00:35:21;12.80;99.90
30889;DHT22;51092;50.874;7.024;2023-08-07T00:36:23;12.80;99.90
30889;DHT22;51092;50.874;7.024;2023-08-07T00:37:26;12.80;99.90
30889;DHT22;51092;50.874;7.024;2023-08-07T00:38:28;12.80;99.90
30889;DHT22;51092;50.874;7.024;2023-08-07T00:39:30;12.80;99.90
30889;DHT22;51092;50.874;7.024;2023-08-07T00:40:36;12.80;99.90
30889;DHT22;51092;50.874;7.024;2023-08-07T00:41:39;12.80;99.90
30889;DHT22;51092;50.874;7.024;2023-08-07T00:42:41;12.80;99.90
30889;DHT22;51092;50.874;7.024;2023-08-07T00:43:45;12.80;99.90
30889;DHT22;51092;50.874;7.024;2023-08-07T00:44:46;12.80;99.90
30889;DHT22;51092;50.874;7.024;2023-08-07T00:45:49;12.90;99.90
30889;DHT22;51092;50.874;7.024;2023-08-07T00:46:51;12.90;99.90
30889;DHT22;51092;50.874;7.024;2023-08-07T00:47:53;12.90;99.90
30889;DHT22;51092;50.874;7.024;2023-08-07T00:48:55;12.90;99.90
30889;DHT22;51092;50.874;7.024;2023-08-07T00:49:59;12.90;99.90
30889;DHT22;51092;50.874;7.024;2023-08-07T00:51:01;12.90;99.90
30889;DHT22;51092;50.874;7.024;2023-08-07T00:52:04;12.90;99.90
30889;DHT22;51092;50.874;7.024;2023-08-07T00:53:06;12.90;99.90
30889;DHT22;51092;50.874;7.024;2023-08-07T00:54:10;13.00;99.90
30889;DHT22;51092;50.874;7.024;2023-08-07T00:55:13;13.00;99.90
30889;DHT22;51092;50.874;7.024;2023-08-07T00:56:15;12.90;99.90
30889;DHT22;51092;50.874;7.024;2023-08-07T00:57:18;12.90;99.90
30889;DHT22;51092;50.874;7.024;2023-08-07T00:58:24;12.90;99.90
30889;DHT22;51092;50.874;7.024;2023-08-07T00:59:27;12.90;99.90
30889;DHT22;51092;50.874;7.024;2023-08-07T01:00:29;12.90;99.90
30889;DHT22;51092;50.874;7.024;2023-08-07T01:01:32;12.90;99.90
30889;DHT22;51092;50.874;7.024;2023-08-07T01:02:34;12.90;99.90
30889;DHT22;51092;50.874;7.024;2023-08-07T01:03:37;12.80;99.90
30889;DHT22;51092;50.874;7.024;2023-08-07T01:04:39;12.80;99.90
30889;DHT22;51092;50.874;7.024;2023-08-07T01:05:42;12.80;99.90
30889;DHT22;51092;50.874;7.024;2023-08-07T01:06:43;12.80;99.90
30889;DHT22;51092;50.874;7.024;2023-08-07T01:07:47;12.80;99.90
30889;DHT22;51092;50.874;7.024;2023-08-07T01:08:49;12.70;99.90
30889;DHT22;51092;50.874;7.024;2023-08-07T01:09:52;12.70;99.90
30889;DHT22;51092;50.874;7.024;2023-08-07T01:11:12;12.70;99.90
30889;DHT22;51092;50.874;7.024;2023-08-07T01:12:20;12.70;99.90
30889;DHT22;51092;50.874;7.024;2023-08-07T01:13:28;12.70;99.90
30889;DHT22;51092;50.874;7.024;2023-08-07T01:14:37;12.70;99.90
30889;DHT22;51092;50.874;7.024;2023-08-07T01:15:41;12.70;99.90
30889;DHT22;51092;50.874;7.024;2023-08-07T01:16:48;12.70;99.90
30889;DHT22;51092;50.874;7.024;2023-08-07T01:17:52;12.70;99.90
30889;DHT22;51092;50.874;7.024;2023-08-07T01:18:56;12.70;99.90
30889;DHT22;51092;50.874;7.024;2023-08-07T01:19:58;12.80;99.90
30889;DHT22;51092;50.874;7.024;2023-08-07T01:21:03;12.70;99.90
30889;DHT22;51092;50.874;7.024;2023-08-07T01:22:07;12.80;99.90
30889;DHT22;51092;50.874;7.024;2023-08-07T01:23:09;12.80;99.90
30889;DHT22;51092;50.874;7.024;2023-08-07T01:24:11;12.80;99.90
30889;DHT22;51092;50.874;7.024;2023-08-07T01:25:13;12.80;99.90
30889;DHT22;51092;50.874;7.024;2023-08-07T01:26:17;12.80;99.90
30889;DHT22;51092;50.874;7.024;2023-08-07T01:27:35;12.80;99.90
30889;DHT22;51092;50.874;7.024;2023-08-07T01:28:42;12.80;99.90
30889;DHT22;51092;50.874;7.024;2023-08-07T01:29:52;12.90;99.90
30889;DHT22;51092;50.874;7.024;2023-08-07T01:31:03;12.90;99.90
30889;DHT22;51092;50.874;7.024;2023-08-07T01:32:08;12.90;99.90
30889;DHT22;51092;50.874;7.024;2023-08-07T01:33:16;12.90;99.90
30889;DHT22;51092;50.874;7.024;2023-08-07T01:34:22;12.90;99.90
30889;DHT22;51092;50.874;7.024;2023-08-07T01:35:27;12.90;99.90
30889;DHT22;51092;50.874;7.024;2023-08-07T01:36:31;12.90;99.90
30889;DHT22;51092;50.874;7.024;2023-08-07T01:37:38;12.90;99.90
30889;DHT22;51092;50.874;7.024;2023-08-07T01:38:42;12.90;99.90
30889;DHT22;51092;50.874;7.024;2023-08-07T01:39:44;12.90;99.90
30889;DHT22;51092;50.874;7.024;2023-08-07T01:40:48;12.90;99.90
30889;DHT22;51092;50.874;7.024;2023-08-07T01:41:51;12.90;99.90
30889;DHT22;51092;50.874;7.024;2023-08-07T01:42:52;12.90;99.90
30889;DHT22;51092;50.874;7.024;2023-08-07T01:43:54;12.90;99.90
30889;DHT22;51092;50.874;7.024;2023-08-07T01:44:57;13.00;99.90
30889;DHT22;51092;50.874;7.024;2023-08-07T01:45:58;13.00;99.90
30889;DHT22;51092;50.874;7.024;2023-08-07T01:47:01;13.00;99.90
30889;DHT22;51092;50.874;7.024;2023-08-07T01:48:03;13.00;99.90
30889;DHT22;51092;50.874;7.024;2023-08-07T01:49:04;13.00;99.90
30889;DHT22;51092;50.874;7.024;2023-08-07T01:50:07;13.00;99.90
30889;DHT22;51092;50.874;7.024;2023-08-07T01:51:08;13.10;99.90
30889;DHT22;51092;50.874;7.024;2023-08-07T01:52:10;13.10;99.90
30889;DHT22;51092;50.874;7.024;2023-08-07T01:53:14;13.10;99.90
30889;DHT22;51092;50.874;7.024;2023-08-07T01:54:16;13.20;99.90
30889;DHT22;51092;50.874;7.024;2023-08-07T01:55:20;13.10;99.90
30889;DHT22;51092;50.874;7.024;2023-08-07T01:56:22;13.20;99.90
30889;DHT22;51092;50.874;7.024;2023-08-07T01:57:24;13.20;99.90
30889;DHT22;51092;50.874;7.024;2023-08-07T01:58:26;13.20;99.90
30889;DHT22;51092;50.874;7.024;2023-08-07T01:59:28;13.20;99.90
30889;DHT22;51092;50.874;7.024;2023-08-07T02:00:30;13.20;99.90
30889;DHT22;51092;50.874;7.024;2023-08-07T02:01:32;13.20;99.90
30889;DHT22;51092;50.874;7.024;2023-08-07T02:02:35;13.20;99.90
30889;DHT22;51092;50.874;7.024;2023-08-07T02:03:36;13.20;99.90
30889;DHT22;51092;50.874;7.024;2023-08-07T02:04:39;13.20;99.90
30889;DHT22;51092;50.874;7.024;2023-08-07T02:05:40;13.20;99.90
30889;DHT22;51092;50.874;7.024;2023-08-07T02:06:43;13.20;99.90
30889;DHT22;51092;50.874;7.024;2023-08-07T02:07:44;13.20;99.90
30889;DHT22;51092;50.874;7.024;2023-08-07T02:08:47;13.20;99.90
30889;DHT22;51092;50.874;7.024;2023-08-07T02:09:50;13.10;99.90
30889;DHT22;51092;50.874;7.024;2023-08-07T02:10:51;13.10;99.90
30889;DHT22;51092;50.874;7.024;2023-08-07T02:11:54;13.10;99.90
30889;DHT22;51092;50.874;7.024;2023-08-07T02:12:57;13.20;99.90
30889;DHT22;51092;50.874;7.024;2023-08-07T02:14:00;13.20;99.90
30889;DHT22;51092;50.874;7.024;2023-08-07T02:15:02;13.20;99.90
30889;DHT22;51092;50.874;7.024;2023-08-07T02:16:05;13.20;99.90
30889;DHT22;51092;50.874;7.024;2023-08-07T02:17:07;13.20;99.90
30889;DHT22;51092;50.874;7.024;2023-08-07T02:18:09;13.30;99.90
30889;DHT22;51092;50.874;7.024;2023-08-07T02:19:11;13.20;99.90
30889;DHT22;51092;50.874;7.024;2023-08-07T02:20:13;13.20;99.90
30889;DHT22;51092;50.874;7.024;2023-08-07T02:21:14;13.30;99.90
30889;DHT22;51092;50.874;7.024;2023-08-07T02:22:17;13.30;99.90
30889;DHT22;51092;50.874;7.024;2023-08-07T02:23:18;13.30;99.90
30889;DHT22;51092;50.874;7.024;2023-08-07T02:24:23;13.30;99.90
30889;DHT22;51092;50.874;7.024;2023-08-07T02:25:24;13.30;99.90
30889;DHT22;51092;50.874;7.024;2023-08-07T02:26:27;13.30;99.90
30889;DHT22;51092;50.874;7.024;2023-08-07T02:27:28;13.30;99.90
30889;DHT22;51092;50.874;7.024;2023-08-07T02:28:31;13.30;99.90
30889;DHT22;51092;50.874;7.024;2023-08-07T02:29:32;13.30;99.90
30889;DHT22;51092;50.874;7.024;2023-08-07T02:30:36;13.30;99.90
30889;DHT22;51092;50.874;7.024;2023-08-07T02:31:37;13.30;99.90
30889;DHT22;51092;50.874;7.024;2023-08-07T02:32:39;13.30;99.90
30889;DHT22;51092;50.874;7.024;2023-08-07T02:33:42;13.30;99.90
30889;DHT22;51092;50.874;7.024;2023-08-07T02:34:45;13.30;99.90
30889;DHT22;51092;50.874;7.024;2023-08-07T02:35:46;13.30;99.90
30889;DHT22;51092;50.874;7.024;2023-08-07T02:36:49;13.30;99.90
30889;DHT22;51092;50.874;7.024;2023-08-07T02:37:50;13.30;99.90
30889;DHT22;51092;50.874;7.024;2023-08-07T02:38:53;13.30;99.90
30889;DHT22;51092;50.874;7.024;2023-08-07T02:39:56;13.30;99.90
30889;DHT22;51092;50.874;7.024;2023-08-07T02:40:58;13.30;99.90
30889;DHT22;51092;50.874;7.024;2023-08-07T02:41:59;13.30;99.90
30889;DHT22;51092;50.874;7.024;2023-08-07T02:43:01;13.30;99.90
30889;DHT22;51092;50.874;7.024;2023-08-07T02:44:04;13.40;99.90
30889;DHT22;51092;50.874;7.024;2023-08-07T02:45:06;13.40;99.90
30889;DHT22;51092;50.874;7.024;2023-08-07T02:46:09;13.30;99.90
30889;DHT22;51092;50.874;7.024;2023-08-07T02:47:10;13.30;99.90
30889;DHT22;51092;50.874;7.024;2023-08-07T02:48:13;13.30;99.90
30889;DHT22;51092;50.874;7.024;2023-08-07T02:49:14;13.30;99.90
30889;DHT22;51092;50.874;7.024;2023-08-07T02:50:17;13.30;99.90
30889;DHT22;51092;50.874;7.024;2023-08-07T02:51:18;13.30;99.90
30889;DHT22;51092;50.874;7.024;2023-08-07T02:52:21;13.30;99.90
30889;DHT22;51092;50.874;7.024;2023-08-07T02:53:22;13.30;99.90
30889;DHT22;51092;50.874;7.024;2023-08-07T02:54:25;13.30;99.90
30889;DHT22;51092;50.874;7.024;2023-08-07T02:55:28;13.20;99.90
30889;DHT22;51092;50.874;7.024;2023-08-07T02:56:30;13.20;99.90
30889;DHT22;51092;50.874;7.024;2023-08-07T02:57:32;13.20;99.90
30889;DHT22;51092;50.874;7.024;2023-08-07T02:58:34;13.10;99.90
30889;DHT22;51092;50.874;7.024;2023-08-07T02:59:35;13.10;99.90
30889;DHT22;51092;50.874;7.024;2023-08-07T03:00:36;13.00;99.90
30889;DHT22;51092;50.874;7.024;2023-08-07T03:01:38;13.00;99.90
30889;DHT22;51092;50.874;7.024;2023-08-07T03:02:39;12.90;99.90
30889;DHT22;51092;50.874;7.024;2023-08-07T03:03:41;12.90;99.90
30889;DHT22;51092;50.874;7.024;2023-08-07T03:04:43;12.90;99.90
30889;DHT22;51092;50.874;7.024;2023-08-07T03:05:49;12.80;99.90
30889;DHT22;51092;50.874;7.024;2023-08-07T03:06:51;12.80;99.90
30889;DHT22;51092;50.874;7.024;2023-08-07T03:07:53;12.80;99.90
30889;DHT22;51092;50.874;7.024;2023-08-07T03:08:55;12.80;99.90
30889;DHT22;51092;50.874;7.024;2023-08-07T03:09:57;12.70;99.90
30889;DHT22;51092;50.874;7.024;2023-08-07T03:11:01;12.70;99.90
30889;DHT22;51092;50.874;7.024;2023-08-07T03:12:04;12.70;99.90
30889;DHT22;51092;50.874;7.024;2023-08-07T03:13:06;12.70;99.90
30889;DHT22;51092;50.874;7.024;2023-08-07T03:14:08;12.60;99.90
30889;DHT22;51092;50.874;7.024;2023-08-07T03:15:10;12.60;99.90
30889;DHT22;51092;50.874;7.024;2023-08-07T03:16:13;12.60;99.90
30889;DHT22;51092;50.874;7.024;2023-08-07T03:17:14;12.60;99.90
30889;DHT22;51092;50.874;7.024;2023-08-07T03:18:17;12.60;99.90
30889;DHT22;51092;50.874;7.024;2023-08-07T03:19:19;12.60;99.90
30889;DHT22;51092;50.874;7.024;2023-08-07T03:20:22;12.60;99.90
30889;DHT22;51092;50.874;7.024;2023-08-07T03:21:24;12.60;99.90
30889;DHT22;51092;50.874;7.024;2023-08-07T03:22:26;12.60;99.90
30889;DHT22;51092;50.874;7.024;2023-08-07T03:23:28;12.50;99.90
30889;DHT22;51092;50.874;7.024;2023-08-07T03:24:30;12.50;99.90
30889;DHT22;51092;50.874;7.024;2023-08-07T03:25:32;12.50;99.90
30889;DHT22;51092;50.874;7.024;2023-08-07T03:26:36;12.50;99.90
30889;DHT22;51092;50.874;7.024;2023-08-07T03:27:37;12.50;99.90
30889;DHT22;51092;50.874;7.024;2023-08-07T03:28:40;12.40;99.90
30889;DHT22;51092;50.874;7.024;2023-08-07T03:29:41;12.50;99.90
30889;DHT22;51092;50.874;7.024;2023-08-07T03:30:43;12.40;99.90
30889;DHT22;51092;50.874;7.024;2023-08-07T03:31:46;12.40;99.90
30889;DHT22;51092;50.874;7.024;2023-08-07T03:32:47;12.40;99.90
30889;DHT22;51092;50.874;7.024;2023-08-07T03:33:52;12.40;99.90
30889;DHT22;51092;50.874;7.024;2023-08-07T03:34:54;12.40;99.90
30889;DHT22;51092;50.874;7.024;2023-08-07T03:35:57;12.40;99.90
30889;DHT22;51092;50.874;7.024;2023-08-07T03:37:00;12.40;99.90
30889;DHT22;51092;50.874;7.024;2023-08-07T03:38:02;12.30;99.90
30889;DHT22;51092;50.874;7.024;2023-08-07T03:39:04;12.30;99.90
30889;DHT22;51092;50.874;7.024;2023-08-07T03:40:07;12.30;99.90
30889;DHT22;51092;50.874;7.024;2023-08-07T03:41:09;12.30;99.90
30889;DHT22;51092;50.874;7.024;2023-08-07T03:42:13;12.30;99.90
30889;DHT22;51092;50.874;7.024;2023-08-07T03:43:16;12.30;99.90
30889;DHT22;51092;50.874;7.024;2023-08-07T03:44:18;12.30;99.90
30889;DHT22;51092;50.874;7.024;2023-08-07T03:45:20;12.30;99.90
30889;DHT22;51092;50.874;7.024;2023-08-07T03:46:22;12.30;99.90
30889;DHT22;51092;50.874;7.024;2023-08-07T03:47:24;12.30;99.90
30889;DHT22;51092;50.874;7.024;2023-08-07T03:48:26;12.30;99.90
30889;DHT22;51092;50.874;7.024;2023-08-07T03:49:27;12.30;99.90
30889;DHT22;51092;50.874;7.024;2023-08-07T03:50:29;12.30;99.90
30889;DHT22;51092;50.874;7.024;2023-08-07T03:51:31;12.30;99.90
30889;DHT22;51092;50.874;7.024;2023-08-07T03:52:34;12.30;99.90
30889;DHT22;51092;50.874;7.024;2023-08-07T03:53:36;12.30;99.90
30889;DHT22;51092;50.874;7.024;2023-08-07T03:54:38;12.30;99.90
30889;DHT22;51092;50.874;7.024;2023-08-07T03:55:40;12.30;99.90
30889;DHT22;51092;50.874;7.024;2023-08-07T03:56:43;12.30;99.90
30889;DHT22;51092;50.874;7.024;2023-08-07T03:57:46;12.30;99.90
30889;DHT22;51092;50.874;7.024;2023-08-07T03:58:49;12.30;99.90
30889;DHT22;51092;50.874;7.024;2023-08-07T03:59:51;12.30;99.90
30889;DHT22;51092;50.874;7.024;2023-08-07T04:00:55;12.30;99.90
30889;DHT22;51092;50.874;7.024;2023-08-07T04:01:57;12.30;99.90
30889;DHT22;51092;50.874;7.024;2023-08-07T04:02:59;12.30;99.90
30889;DHT22;51092;50.874;7.024;2023-08-07T04:04:01;12.30;99.90
30889;DHT22;51092;50.874;7.024;2023-08-07T04:05:04;12.30;99.90
30889;DHT22;51092;50.874;7.024;2023-08-07T04:06:05;12.30;99.90
30889;DHT22;51092;50.874;7.024;2023-08-07T04:07:07;12.30;99.90
30889;DHT22;51092;50.874;7.024;2023-08-07T04:08:09;12.30;99.90
30889;DHT22;51092;50.874;7.024;2023-08-07T04:09:11;12.20;99.90
30889;DHT22;51092;50.874;7.024;2023-08-07T04:10:13;12.30;99.90
30889;DHT22;51092;50.874;7.024;2023-08-07T04:11:15;12.20;99.90
30889;DHT22;51092;50.874;7.024;2023-08-07T04:12:18;12.20;99.90
30889;DHT22;51092;50.874;7.024;2023-08-07T04:13:21;12.20;99.90
30889;DHT22;51092;50.874;7.024;2023-08-07T04:14:23;12.20;99.90
30889;DHT22;51092;50.874;7.024;2023-08-07T04:15:26;12.20;99.90
30889;DHT22;51092;50.874;7.024;2023-08-07T04:16:30;12.20;99.90
30889;DHT22;51092;50.874;7.024;2023-08-07T04:17:32;12.20;99.90
30889;DHT22;51092;50.874;7.024;2023-08-07T04:18:35;12.20;99.90
30889;DHT22;51092;50.874;7.024;2023-08-07T04:19:36;12.20;99.90
30889;DHT22;51092;50.874;7.024;2023-08-07T04:20:39;12.20;99.90
30889;DHT22;51092;50.874;7.024;2023-08-07T04:21:40;12.20;99.90
30889;DHT22;51092;50.874;7.024;2023-08-07T04:22:43;12.20;99.90
30889;DHT22;51092;50.874;7.024;2023-08-07T04:23:45;12.20;99.90
30889;DHT22;51092;50.874;7.024;2023-08-07T04:24:47;12.20;99.90
30889;DHT22;51092;50.874;7.024;2023-08-07T04:25:50;12.20;99.90
30889;DHT22;51092;50.874;7.024;2023-08-07T04:26:52;12.20;99.90
30889;DHT22;51092;50.874;7.024;2023-08-07T04:27:55;12.20;99.90
30889;DHT22;51092;50.874;7.024;2023-08-07T04:28:58;12.20;99.90
30889;DHT22;51092;50.874;7.024;2023-08-07T04:30:00;12.20;99.90
30889;DHT22;51092;50.874;7.024;2023-08-07T04:31:02;12.20;99.90
30889;DHT22;51092;50.874;7.024;2023-08-07T04:32:06;12.20;99.90
30889;DHT22;51092;50.874;7.024;2023-08-07T04:33:07;12.20;99.90
30889;DHT22;51092;50.874;7.024;2023-08-07T04:34:09;12.20;99.90
30889;DHT22;51092;50.874;7.024;2023-08-07T04:35:10;12.20;99.90
30889;DHT22;51092;50.874;7.024;2023-08-07T04:36:12;12.20;99.90
30889;DHT22;51092;50.874;7.024;2023-08-07T04:37:13;12.20;99.90
30889;DHT22;51092;50.874;7.024;2023-08-07T04:38:16;12.20;99.90
30889;DHT22;51092;50.874;7.024;2023-08-07T04:39:18;12.20;99.90
30889;DHT22;51092;50.874;7.024;2023-08-07T04:40:20;12.20;99.90
30889;DHT22;51092;50.874;7.024;2023-08-07T04:41:22;12.20;99.90
30889;DHT22;51092;50.874;7.024;2023-08-07T04:42:25;12.20;99.90
30889;DHT22;51092;50.874;7.024;2023-08-07T04:43:27;12.20;99.90
30889;DHT22;51092;50.874;7.024;2023-08-07T04:44:31;12.20;99.90
30889;DHT22;51092;50.874;7.024;2023-08-07T04:45:32;12.20;99.90
30889;DHT22;51092;50.874;7.024;2023-08-07T04:46:35;12.20;99.90
30889;DHT22;51092;50.874;7.024;2023-08-07T04:47:37;12.20;99.90
30889;DHT22;51092;50.874;7.024;2023-08-07T04:48:39;12.20;99.90
30889;DHT22;51092;50.874;7.024;2023-08-07T04:49:41;12.20;99.90
30889;DHT22;51092;50.874;7.024;2023-08-07T04:50:43;12.20;99.90
30889;DHT22;51092;50.874;7.024;2023-08-07T04:51:44;12.20;99.90
30889;DHT22;51092;50.874;7.024;2023-08-07T04:52:46;12.20;99.90
30889;DHT22;51092;50.874;7.024;2023-08-07T04:53:47;12.20;99.90
30889;DHT22;51092;50.874;7.024;2023-08-07T04:54:51;12.20;99.90
30889;DHT22;51092;50.874;7.024;2023-08-07T04:55:53;12.20;99.90
30889;DHT22;51092;50.874;7.024;2023-08-07T04:56:55;12.20;99.90
30889;DHT22;51092;50.874;7.024;2023-08-07T04:57:58;12.20;99.90
30889;DHT22;51092;50.874;7.024;2023-08-07T04:58:59;12.20;99.90
30889;DHT22;51092;50.874;7.024;2023-08-07T05:00:05;12.20;99.90
30889;DHT22;51092;50.874;7.024;2023-08-07T05:01:09;12.20;99.90
30889;DHT22;51092;50.874;7.024;2023-08-07T05:02:10;12.20;99.90
30889;DHT22;51092;50.874;7.024;2023-08-07T05:03:13;12.20;99.90
30889;DHT22;51092;50.874;7.024;2023-08-07T05:04:16;12.20;99.90
30889;DHT22;51092;50.874;7.024;2023-08-07T05:05:19;12.20;99.90
30889;DHT22;51092;50.874;7.024;2023-08-07T05:06:22;12.20;99.90
30889;DHT22;51092;50.874;7.024;2023-08-07T05:07:24;12.20;99.90
30889;DHT22;51092;50.874;7.024;2023-08-07T05:08:26;12.20;99.90
30889;DHT22;51092;50.874;7.024;2023-08-07T05:09:27;12.20;99.90
30889;DHT22;51092;50.874;7.024;2023-08-07T05:10:30;12.30;99.90
30889;DHT22;51092;50.874;7.024;2023-08-07T05:11:32;12.20;99.90
30889;DHT22;51092;50.874;7.024;2023-08-07T05:12:35;12.30;99.90
30889;DHT22;51092;50.874;7.024;2023-08-07T05:13:36;12.20;99.90
30889;DHT22;51092;50.874;7.024;2023-08-07T05:14:38;12.30;99.90
30889;DHT22;51092;50.874;7.024;2023-08-07T05:15:41;12.30;99.90
30889;DHT22;51092;50.874;7.024;2023-08-07T05:16:44;12.30;99.90
30889;DHT22;51092;50.874;7.024;2023-08-07T05:17:45;12.30;99.90
30889;DHT22;51092;50.874;7.024;2023-08-07T05:18:48;12.30;99.90
30889;DHT22;51092;50.874;7.024;2023-08-07T05:19:49;12.30;99.90
30889;DHT22;51092;50.874;7.024;2023-08-07T05:20:52;12.30;99.90
30889;DHT22;51092;50.874;7.024;2023-08-07T05:21:53;12.30;99.90
30889;DHT22;51092;50.874;7.024;2023-08-07T05:22:55;12.30;99.90
30889;DHT22;51092;50.874;7.024;2023-08-07T05:23:56;12.30;99.90
30889;DHT22;51092;50.874;7.024;2023-08-07T05:24:58;12.40;99.90
30889;DHT22;51092;50.874;7.024;2023-08-07T05:25:59;12.40;99.90
30889;DHT22;51092;50.874;7.024;2023-08-07T05:27:02;12.40;99.90
30889;DHT22;51092;50.874;7.024;2023-08-07T05:28:03;12.40;99.90
30889;DHT22;51092;50.874;7.024;2023-08-07T05:29:05;12.50;99.90
30889;DHT22;51092;50.874;7.024;2023-08-07T05:30:08;12.50;99.90
30889;DHT22;51092;50.874;7.024;2023-08-07T05:31:12;12.50;99.90
30889;DHT22;51092;50.874;7.024;2023-08-07T05:32:15;12.50;99.90
30889;DHT22;51092;50.874;7.024;2023-08-07T05:33:16;12.50;99.90
30889;DHT22;51092;50.874;7.024;2023-08-07T05:34:18;12.50;99.90
30889;DHT22;51092;50.874;7.024;2023-08-07T05:35:20;12.60;99.90
30889;DHT22;51092;50.874;7.024;2023-08-07T05:36:22;12.50;99.90
30889;DHT22;51092;50.874;7.024;2023-08-07T05:37:24;12.50;99.90
30889;DHT22;51092;50.874;7.024;2023-08-07T05:38:28;12.60;99.90
30889;DHT22;51092;50.874;7.024;2023-08-07T05:39:29;12.60;99.90
30889;DHT22;51092;50.874;7.024;2023-08-07T05:40:31;12.60;99.90
30889;DHT22;51092;50.874;7.024;2023-08-07T05:41:33;12.60;99.90
30889;DHT22;51092;50.874;7.024;2023-08-07T05:42:35;12.60;99.90
30889;DHT22;51092;50.874;7.024;2023-08-07T05:43:37;12.60;99.90
30889;DHT22;51092;50.874;7.024;2023-08-07T05:44:39;12.60;99.90
30889;DHT22;51092;50.874;7.024;2023-08-07T05:45:42;12.60;99.90
30889;DHT22;51092;50.874;7.024;2023-08-07T05:46:47;12.60;99.90
30889;DHT22;51092;50.874;7.024;2023-08-07T05:47:49;12.60;99.90
30889;DHT22;51092;50.874;7.024;2023-08-07T05:48:51;12.60;99.90
30889;DHT22;51092;50.874;7.024;2023-08-07T05:49:53;12.60;99.90
30889;DHT22;51092;50.874;7.024;2023-08-07T05:50:54;12.60;99.90
30889;DHT22;51092;50.874;7.024;2023-08-07T05:51:57;12.60;99.90
30889;DHT22;51092;50.874;7.024;2023-08-07T05:52:58;12.60;99.90
30889;DHT22;51092;50.874;7.024;2023-08-07T05:54:01;12.60;99.90
30889;DHT22;51092;50.874;7.024;2023-08-07T05:55:03;12.70;99.90
30889;DHT22;51092;50.874;7.024;2023-08-07T05:56:06;12.70;99.90
30889;DHT22;51092;50.874;7.024;2023-08-07T05:57:07;12.60;99.90
30889;DHT22;51092;50.874;7.024;2023-08-07T05:58:09;12.60;99.90
30889;DHT22;51092;50.874;7.024;2023-08-07T05:59:11;12.60;99.90
30889;DHT22;51092;50.874;7.024;2023-08-07T06:00:13;12.60;99.90
30889;DHT22;51092;50.874;7.024;2023-08-07T06:01:18;12.60;99.90
30889;DHT22;51092;50.874;7.024;2023-08-07T06:02:21;12.60;99.90
30889;DHT22;51092;50.874;7.024;2023-08-07T06:03:24;12.60;99.90
30889;DHT22;51092;50.874;7.024;2023-08-07T06:04:25;12.60;99.90
30889;DHT22;51092;50.874;7.024;2023-08-07T06:05:28;12.70;99.90
30889;DHT22;51092;50.874;7.024;2023-08-07T06:06:29;12.70;99.90
30889;DHT22;51092;50.874;7.024;2023-08-07T06:07:35;12.70;99.90
30889;DHT22;51092;50.874;7.024;2023-08-07T06:08:37;12.80;99.90
30889;DHT22;51092;50.874;7.024;2023-08-07T06:09:39;12.70;99.90
30889;DHT22;51092;50.874;7.024;2023-08-07T06:10:41;12.80;99.90
30889;DHT22;51092;50.874;7.024;2023-08-07T06:11:43;12.80;99.90
30889;DHT22;51092;50.874;7.024;2023-08-07T06:12:45;12.80;99.90
30889;DHT22;51092;50.874;7.024;2023-08-07T06:13:48;12.90;99.90
30889;DHT22;51092;50.874;7.024;2023-08-07T06:14:49;12.90;99.90
30889;DHT22;51092;50.874;7.024;2023-08-07T06:15:52;12.80;99.90
30889;DHT22;51092;50.874;7.024;2023-08-07T06:16:53;12.80;99.90
30889;DHT22;51092;50.874;7.024;2023-08-07T06:18:00;12.80;99.90
30889;DHT22;51092;50.874;7.024;2023-08-07T06:19:01;12.80;99.90
30889;DHT22;51092;50.874;7.024;2023-08-07T06:20:05;12.80;99.90
30889;DHT22;51092;50.874;7.024;2023-08-07T06:21:10;12.70;99.90
30889;DHT22;51092;50.874;7.024;2023-08-07T06:22:12;12.70;99.90
30889;DHT22;51092;50.874;7.024;2023-08-07T06:23:14;12.70;99.90
30889;DHT22;51092;50.874;7.024;2023-08-07T06:24:16;12.60;99.90
30889;DHT22;51092;50.874;7.024;2023-08-07T06:25:18;12.60;99.90
30889;DHT22;51092;50.874;7.024;2023-08-07T06:26:20;12.60;99.90
30889;DHT22;51092;50.874;7.024;2023-08-07T06:27:22;12.50;99.90
30889;DHT22;51092;50.874;7.024;2023-08-07T06:28:24;12.50;99.90
30889;DHT22;51092;50.874;7.024;2023-08-07T06:29:26;12.50;99.90
30889;DHT22;51092;50.874;7.024;2023-08-07T06:30:28;12.50;99.90
30889;DHT22;51092;50.874;7.024;2023-08-07T06:31:30;12.40;99.90
30889;DHT22;51092;50.874;7.024;2023-08-07T06:32:33;12.40;99.90
30889;DHT22;51092;50.874;7.024;2023-08-07T06:33:36;12.30;99.90
30889;DHT22;51092;50.874;7.024;2023-08-07T06:34:39;12.40;99.90